Time;durP1;ratioP1;P1;durP2;ratioP2;P2;SDS_P1;SDS_P2;PMS_P1;PMS_P2;Temp;Humidity;BMP_temperature;BMP_pressure;BME280_temperature;BME280_humidity;BME280_pressure;Samples;Min_cycle;Max_cycle;Signal;HPM_P1;HPM_P2
2021/10/02 00:36:01;;;;;;;21.03;11.37;;;15.30;99.90;;;;;;6247569;23;20148;-88
2021/10/02 00:46:31;;;;;;;16.00;10.20;;;15.20;99.90;;;;;;6248079;23;20570;-87
2021/10/02 00:48:58;;;;;;;16.73;10.93;;;15.20;99.90;;;;;;6220598;23;20170;-87
2021/10/02 00:51:23;;;;;;;14.83;11.13;;;15.20;99.90;;;;;;6221175;23;20152;-88
2021/10/02 00:53:49;;;;;;;18.27;11.63;;;15.40;99.90;;;;;;6221402;23;20152;-88
2021/10/02 00:56:16;;;;;;;18.07;10.90;;;15.40;99.90;;;;;;6221317;23;20582;-88
2021/10/02 00:58:48;;;;;;;15.57;11.27;;;15.30;99.90;;;;;;6220964;23;20263;-87
2021/10/02 01:01:19;;;;;;;14.20;10.03;;;15.20;99.90;;;;;;6221499;23;20146;-88
2021/10/02 01:04:22;;;;;;;13.00;9.57;;;15.20;99.90;;;;;;6220873;23;20168;-88
2021/10/02 01:07:12;;;;;;;15.27;10.03;;;15.20;99.90;;;;;;6221180;23;20233;-88
2021/10/02 01:09:46;;;;;;;19.57;11.13;;;15.30;99.90;;;;;;6221282;23;20150;-88
2021/10/02 01:12:45;;;;;;;15.63;10.17;;;15.20;99.90;;;;;;6221602;23;20147;-87
2021/10/02 01:15:22;;;;;;;21.30;10.13;;;15.20;99.90;;;;;;6248010;23;20236;-87
2021/10/02 01:17:58;;;;;;;14.67;9.73;;;15.20;99.90;;;;;;6221390;23;20150;-88
2021/10/02 01:20:33;;;;;;;17.27;8.97;;;15.20;99.90;;;;;;6221337;23;20210;-87
2021/10/02 01:23:29;;;;;;;15.90;9.30;;;15.20;99.90;;;;;;6221054;23;20150;-87
2021/10/02 01:26:17;;;;;;;17.90;9.90;;;15.30;99.90;;;;;;6221050;23;20154;-85
2021/10/02 01:28:47;;;;;;;16.37;9.63;;;15.30;99.90;;;;;;6221204;23;20177;-86
2021/10/02 01:31:21;;;;;;;19.53;10.07;;;15.20;99.90;;;;;;6220927;23;20169;-85
2021/10/02 01:34:10;;;;;;;13.70;8.67;;;15.20;99.90;;;;;;6220702;23;20148;-86
2021/10/02 01:47:55;;;;;;;19.07;9.87;;;15.20;99.90;;;;;;6241374;23;20176;-84
2021/10/02 01:50:24;;;;;;;13.87;9.77;;;15.10;99.90;;;;;;6220867;23;20178;-87
2021/10/02 01:52:51;;;;;;;13.23;8.47;;;15.20;99.90;;;;;;6220281;23;20170;-86
2021/10/02 01:55:19;;;;;;;14.63;9.00;;;15.10;99.90;;;;;;6247269;23;20149;-85
2021/10/02 01:57:48;;;;;;;16.60;8.70;;;15.10;99.90;;;;;;6220697;23;20515;-87
2021/10/02 02:00:15;;;;;;;13.63;8.27;;;15.20;99.90;;;;;;6220954;23;20149;-86
2021/10/02 02:02:50;;;;;;;14.00;7.70;;;15.20;99.90;;;;;;6220665;23;20195;-87
2021/10/02 02:05:21;;;;;;;14.83;7.93;;;15.10;99.90;;;;;;6220972;23;20151;-85
2021/10/02 02:07:52;;;;;;;13.07;7.63;;;15.00;99.90;;;;;;6220470;23;20149;-85
2021/10/02 02:10:19;;;;;;;15.77;8.33;;;15.00;99.90;;;;;;6220460;23;20150;-85
2021/10/02 02:12:48;;;;;;;13.90;7.70;;;15.00;99.90;;;;;;6220442;23;20176;-85
2021/10/02 02:15:15;;;;;;;14.70;7.33;;;15.00;99.90;;;;;;6220500;23;20143;-85
2021/10/02 02:17:45;;;;;;;17.33;7.47;;;15.00;99.90;;;;;;6220542;23;20149;-86
2021/10/02 02:20:17;;;;;;;15.10;7.93;;;15.00;99.90;;;;;;6220752;23;20183;-86
2021/10/02 02:22:43;;;;;;;16.67;7.80;;;14.90;99.90;;;;;;6220529;23;20138;-86
2021/10/02 02:25:09;;;;;;;18.13;7.60;;;15.10;99.90;;;;;;6220148;23;20150;-85
2021/10/02 02:27:35;;;;;;;13.13;8.23;;;15.00;99.90;;;;;;6220605;23;20145;-85
2021/10/02 02:30:01;;;;;;;12.77;7.90;;;14.90;99.90;;;;;;6220427;23;20144;-85
2021/10/02 02:32:27;;;;;;;18.20;7.90;;;14.80;99.90;;;;;;6220345;23;20200;-84
2021/10/02 02:34:53;;;;;;;15.43;8.50;;;14.80;99.90;;;;;;6219994;23;20163;-85
2021/10/02 02:37:19;;;;;;;16.77;8.63;;;14.70;99.90;;;;;;6247102;23;20186;-86
2021/10/02 02:39:44;;;;;;;17.33;8.07;;;14.70;99.90;;;;;;6220445;23;20183;-85
2021/10/02 02:42:10;;;;;;;14.57;8.50;;;14.60;99.90;;;;;;6221510;23;20153;-85
2021/10/02 02:44:37;;;;;;;16.00;8.10;;;14.60;99.90;;;;;;6221929;23;20145;-85
2021/10/02 02:47:11;;;;;;;13.17;7.40;;;14.60;99.90;;;;;;6221602;23;20201;-85
2021/10/02 02:50:14;;;;;;;11.33;7.90;;;14.60;99.90;;;;;;6221889;23;20628;-85
2021/10/02 02:53:18;;;;;;;16.83;8.87;;;14.70;99.90;;;;;;6223682;23;20169;-85
2021/10/02 02:55:50;;;;;;;18.33;8.53;;;14.70;99.90;;;;;;6237422;23;20161;-85
2021/10/02 02:58:18;;;;;;;14.87;8.93;;;14.60;99.90;;;;;;6264047;23;20174;-85
2021/10/02 03:00:57;;;;;;;14.67;8.40;;;14.70;99.90;;;;;;6237466;23;20133;-87
2021/10/02 03:03:29;;;;;;;14.30;8.83;;;14.60;99.90;;;;;;6240381;23;20224;-86
2021/10/02 03:06:00;;;;;;;18.57;9.70;;;14.80;99.90;;;;;;6236511;23;20140;-87
2021/10/02 03:08:32;;;;;;;16.93;9.13;;;14.70;99.90;;;;;;6237804;23;20210;-85
2021/10/02 03:11:02;;;;;;;17.10;10.57;;;14.80;99.90;;;;;;6237609;23;20249;-85
2021/10/02 03:13:31;;;;;;;17.83;9.07;;;14.80;99.90;;;;;;6235652;23;20154;-85
2021/10/02 03:15:57;;;;;;;16.43;9.80;;;14.70;99.90;;;;;;6220761;23;20153;-85
2021/10/02 03:18:26;;;;;;;17.73;9.07;;;14.80;99.90;;;;;;6221198;23;20188;-84
2021/10/02 03:20:56;;;;;;;18.87;9.30;;;14.80;99.90;;;;;;6222324;23;20161;-88
2021/10/02 03:23:24;;;;;;;19.60;10.07;;;14.80;99.90;;;;;;6224315;23;20145;-88
2021/10/02 03:25:50;;;;;;;16.80;10.13;;;14.80;99.90;;;;;;6222202;23;20148;-86
2021/10/02 03:28:17;;;;;;;18.37;10.30;;;14.70;99.90;;;;;;6220413;23;20657;-85
2021/10/02 03:30:43;;;;;;;15.10;9.37;;;14.50;99.90;;;;;;6219938;23;20238;-86
2021/10/02 03:33:10;;;;;;;21.93;10.33;;;14.40;99.90;;;;;;6220376;23;20473;-86
2021/10/02 03:35:36;;;;;;;19.70;9.87;;;14.40;99.90;;;;;;6219510;23;20235;-85
2021/10/02 03:38:02;;;;;;;15.90;9.47;;;14.40;99.90;;;;;;6218803;23;20672;-84
2021/10/02 03:40:28;;;;;;;17.53;9.50;;;14.50;99.90;;;;;;6219460;23;20220;-84
2021/10/02 03:42:56;;;;;;;17.30;9.23;;;14.50;99.90;;;;;;6220005;23;20232;-85
2021/10/02 03:45:25;;;;;;;11.47;8.13;;;14.40;99.90;;;;;;6219728;23;20150;-84
2021/10/02 03:47:51;;;;;;;17.87;9.53;;;14.40;99.90;;;;;;6219426;23;20152;-84
2021/10/02 03:50:17;;;;;;;19.43;9.30;;;14.40;99.90;;;;;;6219640;23;20172;-85
2021/10/02 03:52:43;;;;;;;15.13;9.43;;;14.40;99.90;;;;;;6219803;23;20150;-84
2021/10/02 03:55:12;;;;;;;17.63;9.70;;;14.40;99.90;;;;;;6220329;23;20607;-84
2021/10/02 03:57:37;;;;;;;16.13;9.60;;;14.70;99.90;;;;;;6219681;23;20149;-87
2021/10/02 04:00:05;;;;;;;18.60;11.10;;;14.80;99.90;;;;;;6219584;23;20672;-87
2021/10/02 04:02:31;;;;;;;17.20;9.50;;;14.80;99.90;;;;;;6218966;23;20206;-84
2021/10/02 04:04:57;;;;;;;19.23;9.13;;;14.80;99.90;;;;;;6219418;23;20523;-87
2021/10/02 04:07:23;;;;;;;17.70;9.27;;;14.70;99.90;;;;;;6219434;23;20146;-86
2021/10/02 04:09:48;;;;;;;15.67;10.07;;;14.70;99.90;;;;;;6219166;23;20161;-86
2021/10/02 04:12:15;;;;;;;23.20;9.67;;;14.80;99.90;;;;;;6219795;23;20150;-86
2021/10/02 04:14:42;;;;;;;16.03;10.60;;;14.60;99.90;;;;;;6219780;23;20189;-85
2021/10/02 04:17:08;;;;;;;14.53;9.83;;;14.60;99.90;;;;;;6219040;23;20148;-87
2021/10/02 04:19:34;;;;;;;15.27;10.03;;;14.80;99.90;;;;;;6219088;23;20286;-84
2021/10/02 04:22:00;;;;;;;16.30;10.00;;;14.80;99.90;;;;;;6219558;23;20186;-87
2021/10/02 04:24:26;;;;;;;17.63;10.40;;;14.90;99.90;;;;;;6219711;23;20145;-87
2021/10/02 04:26:52;;;;;;;23.40;10.70;;;14.80;99.90;;;;;;6218854;23;20149;-84
2021/10/02 04:29:18;;;;;;;21.03;10.80;;;14.80;99.90;;;;;;6219645;23;20150;-87
2021/10/02 04:31:43;;;;;;;17.07;10.57;;;14.80;99.90;;;;;;6219325;23;20151;-87
2021/10/02 04:34:09;;;;;;;22.07;10.47;;;14.60;99.90;;;;;;6219034;23;20184;-87
2021/10/02 04:36:35;;;;;;;20.57;11.53;;;14.50;99.90;;;;;;6219242;23;20156;-87
2021/10/02 04:39:01;;;;;;;20.87;12.70;;;14.60;99.90;;;;;;6219182;23;20288;-85
2021/10/02 04:41:27;;;;;;;20.90;11.83;;;14.50;99.90;;;;;;6218910;23;20182;-85
2021/10/02 04:43:53;;;;;;;21.83;11.63;;;14.50;99.90;;;;;;6219302;23;20156;-84
2021/10/02 04:46:20;;;;;;;17.97;11.40;;;14.40;99.90;;;;;;6219028;23;20174;-85
2021/10/02 04:48:47;;;;;;;23.30;10.87;;;14.30;99.90;;;;;;6218966;23;20213;-85
2021/10/02 04:51:14;;;;;;;21.27;11.23;;;14.30;99.90;;;;;;6219740;23;20152;-85
2021/10/02 04:53:40;;;;;;;19.27;11.73;;;14.40;99.90;;;;;;6219478;23;20493;-85
2021/10/02 04:56:12;;;;;;;19.30;12.30;;;14.30;99.90;;;;;;6219138;23;20222;-85
2021/10/02 04:58:39;;;;;;;21.00;11.87;;;14.40;99.90;;;;;;6218745;23;20214;-87
2021/10/02 05:01:08;;;;;;;22.53;12.17;;;14.30;99.90;;;;;;6218589;23;20159;-85
2021/10/02 05:03:36;;;;;;;23.57;13.23;;;14.40;99.90;;;;;;6218907;23;20188;-84
2021/10/02 05:06:03;;;;;;;20.23;11.90;;;14.40;99.90;;;;;;6219321;23;20155;-84
2021/10/02 05:08:29;;;;;;;24.00;13.17;;;14.40;99.90;;;;;;6219806;23;20180;-85
2021/10/02 05:10:54;;;;;;;27.03;14.07;;;14.40;99.90;;;;;;6219494;23;20640;-87
2021/10/02 05:13:20;;;;;;;20.13;13.70;;;14.50;99.90;;;;;;6219436;23;20153;-87
2021/10/02 05:15:46;;;;;;;24.67;13.67;;;14.40;99.90;;;;;;6218970;23;20188;-84
2021/10/02 05:18:11;;;;;;;20.37;14.00;;;14.40;99.90;;;;;;6218743;23;20183;-87
2021/10/02 05:20:38;;;;;;;22.83;14.40;;;14.40;99.90;;;;;;6219667;23;20164;-84
2021/10/02 05:23:05;;;;;;;25.50;14.43;;;14.40;99.90;;;;;;6221002;23;20151;-86
2021/10/02 05:25:31;;;;;;;29.70;15.90;;;14.60;99.90;;;;;;6220689;23;20226;-86
2021/10/02 05:51:34;;;;;;;21.63;12.43;;;14.50;99.90;;;;;;6248593;23;20147;-95
2021/10/02 05:55:15;;;;;;;;;;;;;;;;;;;;;
2021/10/02 07:01:55;;;;;;;23.13;11.87;;;15.00;99.90;;;;;;6235726;22;20231;-94
2021/10/02 07:04:21;;;;;;;21.83;11.53;;;14.90;99.90;;;;;;6223050;23;20453;-93
2021/10/02 07:06:55;;;;;;;21.47;11.33;;;14.90;99.90;;;;;;6221782;23;20178;-93
2021/10/02 07:47:11;;;;;;;12.10;6.07;;;15.50;99.90;;;;;;6221483;23;20178;-91
2021/10/02 07:50:05;;;;;;;12.53;5.80;;;15.60;99.90;;;;;;6195404;23;20600;-91
2021/10/02 07:52:33;;;;;;;11.50;5.73;;;15.70;99.90;;;;;;6211540;23;20173;-91
2021/10/02 12:42:59;;;;;;;4.10;1.20;;;18.70;99.90;;;;;;6205374;22;20246;-94
2021/10/02 12:48:53;;;;;;;2.43;0.97;;;19.00;99.90;;;;;;6237130;22;20263;-95
2021/10/02 14:07:44;;;;;;;;;;;;;;;;;;;;;
2021/10/02 14:10:37;;;;;;;5.00;1.13;;;18.90;99.90;;;;;;6092965;23;20158;-93
2021/10/02 14:13:25;;;;;;;;;;;;;;;;;;;;;
2021/10/02 14:16:55;;;;;;;;;;;;;;;;;;;;;
2021/10/02 14:19:24;;;;;;;7.87;1.50;;;19.10;99.90;;;;;;6010619;23;20704;-92
2021/10/02 14:21:59;;;;;;;6.83;1.53;;;19.10;99.90;;;;;;6012812;23;20166;-93
2021/10/02 14:24:25;;;;;;;5.23;0.90;;;19.00;99.90;;;;;;6010957;23;20629;-90
2021/10/02 14:26:50;;;;;;;4.07;1.20;;;18.90;99.90;;;;;;6143996;23;20159;-90
2021/10/02 14:29:16;;;;;;;5.60;1.20;;;19.00;99.90;;;;;;6216238;23;20155;-91
2021/10/02 14:31:42;;;;;;;5.13;0.93;;;19.00;99.90;;;;;;6216160;23;20150;-92
2021/10/02 14:34:08;;;;;;;6.50;1.13;;;19.00;99.90;;;;;;6215722;23;20593;-90
2021/10/02 14:36:36;;;;;;;5.07;1.20;;;19.00;99.90;;;;;;6216082;23;20202;-90
2021/10/02 14:39:02;;;;;;;6.57;1.40;;;19.10;99.90;;;;;;6216165;23;20512;-90
2021/10/02 14:41:28;;;;;;;4.60;1.03;;;19.00;99.90;;;;;;6190448;23;20151;-91
2021/10/02 14:43:54;;;;;;;5.13;1.00;;;19.00;99.90;;;;;;6215566;23;20493;-91
2021/10/02 14:46:23;;;;;;;4.87;0.93;;;18.90;99.90;;;;;;6216116;23;20230;-89
2021/10/02 14:48:48;;;;;;;5.47;1.40;;;18.80;99.90;;;;;;6190415;23;20144;-90
2021/10/02 14:51:15;;;;;;;3.23;1.17;;;18.80;99.90;;;;;;6215823;23;20166;-89
2021/10/02 14:53:43;;;;;;;5.00;1.10;;;18.90;99.90;;;;;;6215472;23;20158;-89
2021/10/02 14:56:09;;;;;;;5.13;1.30;;;18.80;99.90;;;;;;6215672;23;20497;-90
2021/10/02 14:58:37;;;;;;;5.43;1.20;;;18.80;99.90;;;;;;6215979;23;20262;-90
2021/10/02 15:01:03;;;;;;;4.73;1.30;;;18.70;99.90;;;;;;6215846;23;20178;-90
2021/10/02 15:03:30;;;;;;;6.27;1.27;;;18.70;99.90;;;;;;6216081;23;20151;-90
2021/10/02 15:05:56;;;;;;;3.40;1.23;;;18.70;99.90;;;;;;6215306;23;20190;-92
2021/10/02 15:08:22;;;;;;;5.87;1.10;;;18.70;99.90;;;;;;6216193;23;20147;-92
2021/10/02 15:10:49;;;;;;;5.57;1.23;;;18.80;99.90;;;;;;6215275;23;20218;-92
2021/10/02 15:13:20;;;;;;;4.17;1.30;;;18.80;99.90;;;;;;6215515;23;20242;-92
2021/10/02 15:15:55;;;;;;;5.93;1.40;;;18.90;99.90;;;;;;6215351;23;20151;-92
2021/10/02 15:18:21;;;;;;;8.37;2.13;;;18.90;99.90;;;;;;6215598;23;20588;-92
2021/10/02 15:20:52;;;;;;;4.93;1.37;;;18.90;99.90;;;;;;6215524;23;20239;-90
2021/10/02 15:23:25;;;;;;;5.13;1.20;;;18.90;99.90;;;;;;6215430;23;20179;-92
2021/10/02 15:25:55;;;;;;;2.63;1.10;;;18.80;99.90;;;;;;6214580;23;20140;-90
2021/10/02 15:28:23;;;;;;;5.43;1.30;;;18.80;99.90;;;;;;6216354;23;20491;-92
2021/10/02 15:30:54;;;;;;;3.57;1.30;;;18.70;99.90;;;;;;6244208;23;20143;-92
2021/10/02 15:33:21;;;;;;;4.70;1.20;;;18.70;99.90;;;;;;6219963;23;20585;-90
2021/10/02 15:35:51;;;;;;;7.20;1.87;;;18.60;99.90;;;;;;6219014;23;20160;-88
2021/10/02 15:38:18;;;;;;;3.40;0.93;;;18.40;99.90;;;;;;6220568;23;20229;-90
2021/10/02 15:40:45;;;;;;;5.87;1.40;;;18.40;99.90;;;;;;6216679;23;20154;-91
2021/10/02 15:43:17;;;;;;;4.00;1.43;;;18.40;99.90;;;;;;6222405;23;20154;-91
2021/10/02 15:45:45;;;;;;;4.93;1.23;;;18.40;99.90;;;;;;6215879;23;20468;-89
2021/10/02 15:48:13;;;;;;;3.83;1.50;;;18.30;99.90;;;;;;6216938;23;20489;-89
2021/10/02 15:50:51;;;;;;;4.97;1.40;;;18.40;99.90;;;;;;6216918;23;20148;-90
2021/10/02 15:53:21;;;;;;;3.47;1.53;;;18.40;99.90;;;;;;6216414;23;20146;-90
2021/10/02 15:55:59;;;;;;;2.80;1.00;;;18.50;99.90;;;;;;6215226;23;20157;-89
2021/10/02 15:58:40;;;;;;;5.00;1.47;;;18.40;99.90;;;;;;6219413;23;20269;-91
2021/10/02 16:01:08;;;;;;;4.93;1.50;;;18.30;99.90;;;;;;6216682;23;20192;-91
2021/10/02 16:03:43;;;;;;;4.83;1.50;;;18.30;99.90;;;;;;6216197;23;20611;-89
2021/10/02 16:06:13;;;;;;;3.27;1.53;;;18.20;99.90;;;;;;6215050;23;20165;-89
2021/10/02 16:08:46;;;;;;;4.27;1.87;;;18.10;99.90;;;;;;6215004;23;20151;-91
2021/10/02 16:11:13;;;;;;;4.83;1.90;;;18.10;99.90;;;;;;6214752;23;20148;-90
2021/10/02 16:13:41;;;;;;;5.70;2.63;;;18.10;99.90;;;;;;6215190;23;20199;-90
2021/10/02 16:16:09;;;;;;;4.87;1.60;;;17.90;99.90;;;;;;6215083;23;20182;-90
2021/10/02 16:18:35;;;;;;;6.37;2.03;;;17.80;99.90;;;;;;6214750;23;20182;-90
2021/10/02 16:21:01;;;;;;;8.50;2.10;;;17.70;99.90;;;;;;6216526;23;20218;-90
2021/10/02 16:23:28;;;;;;;4.07;1.70;;;17.80;99.90;;;;;;6219237;23;20633;-91
2021/10/02 16:25:54;;;;;;;4.67;1.50;;;17.90;99.90;;;;;;6224071;23;20168;-92
2021/10/02 16:28:21;;;;;;;2.70;1.77;;;17.90;99.90;;;;;;6217944;23;20149;-93
2021/10/02 16:30:48;;;;;;;4.53;1.60;;;17.80;99.90;;;;;;6218233;23;20153;-92
2021/10/02 16:33:14;;;;;;;5.17;1.57;;;17.60;99.90;;;;;;6221465;23;20153;-92
2021/10/02 16:35:45;;;;;;;3.23;2.00;;;17.50;99.90;;;;;;6222168;23;20159;-93
2021/10/02 16:38:11;;;;;;;2.67;1.70;;;17.30;99.90;;;;;;6219109;23;20158;-93
2021/10/02 16:40:39;;;;;;;5.50;2.17;;;17.30;99.90;;;;;;6225205;23;20152;-94
2021/10/02 16:43:05;;;;;;;3.77;2.47;;;17.30;99.90;;;;;;6228842;23;20139;-92
2021/10/02 16:45:34;;;;;;;4.37;2.30;;;17.20;99.90;;;;;;6220472;23;20156;-93
2021/10/02 16:48:01;;;;;;;4.70;1.93;;;17.10;99.90;;;;;;6220448;23;20143;-91
2021/10/02 16:50:31;;;;;;;4.07;1.80;;;17.00;99.90;;;;;;6217515;23;20207;-91
2021/10/02 16:52:58;;;;;;;5.30;2.07;;;17.00;99.90;;;;;;6214962;23;20145;-90
2021/10/02 16:55:25;;;;;;;4.97;2.13;;;17.00;99.90;;;;;;6221104;23;20181;-90
2021/10/02 16:57:51;;;;;;;3.47;1.50;;;16.90;99.90;;;;;;6216809;23;20483;-90
2021/10/02 17:00:24;;;;;;;4.53;2.20;;;16.80;99.90;;;;;;6215649;23;20189;-91
2021/10/02 17:02:51;;;;;;;2.83;1.90;;;16.70;99.90;;;;;;6217208;23;20208;-90
2021/10/02 17:05:17;;;;;;;6.43;1.97;;;16.60;99.90;;;;;;6219338;23;20179;-90
2021/10/02 17:07:43;;;;;;;3.73;2.20;;;16.70;99.90;;;;;;6215572;23;20145;-90
2021/10/02 17:10:09;;;;;;;4.73;2.20;;;16.60;99.90;;;;;;6214842;23;20581;-90
2021/10/02 17:12:35;;;;;;;3.57;1.80;;;16.50;99.90;;;;;;6214988;23;20161;-91
2021/10/02 17:15:01;;;;;;;3.80;1.90;;;16.50;99.90;;;;;;6214611;23;20150;-91
2021/10/02 17:17:29;;;;;;;3.53;2.27;;;16.50;99.90;;;;;;6215709;23;20178;-92
2021/10/02 17:19:54;;;;;;;3.23;1.83;;;16.40;99.90;;;;;;6216720;23;20628;-91
2021/10/02 17:22:20;;;;;;;2.93;1.87;;;16.50;99.90;;;;;;6216723;23;20152;-91
2021/10/02 17:24:46;;;;;;;2.80;1.40;;;16.40;99.90;;;;;;6217476;23;20241;-92
2021/10/02 17:27:11;;;;;;;3.90;1.97;;;16.40;99.90;;;;;;6218456;23;20643;-93
2021/10/02 17:29:37;;;;;;;2.30;1.67;;;16.30;99.90;;;;;;6218751;23;20152;-93
2021/10/02 17:32:03;;;;;;;2.40;1.60;;;16.40;99.90;;;;;;6218368;23;20151;-89
2021/10/02 17:34:29;;;;;;;2.73;1.80;;;16.40;99.90;;;;;;6217802;23;20160;-90
2021/10/02 17:36:54;;;;;;;5.20;1.83;;;16.30;99.90;;;;;;6218012;23;20159;-88
2021/10/02 17:39:20;;;;;;;4.30;1.80;;;16.30;99.90;;;;;;6219392;23;20180;-91
2021/10/02 17:41:47;;;;;;;3.67;1.80;;;16.40;99.90;;;;;;6220170;23;20149;-90
2021/10/02 17:44:14;;;;;;;2.93;1.77;;;16.40;99.90;;;;;;6220687;23;20177;-93
2021/10/02 17:46:40;;;;;;;2.60;1.57;;;16.40;99.90;;;;;;6232668;23;20153;-91
2021/10/02 17:49:06;;;;;;;4.23;1.90;;;16.30;99.90;;;;;;6229232;23;20155;-91
2021/10/02 17:51:33;;;;;;;2.57;1.60;;;16.30;99.90;;;;;;6226403;23;20154;-91
2021/10/02 17:53:59;;;;;;;3.27;2.07;;;16.40;99.90;;;;;;6216571;23;20140;-92
2021/10/02 17:56:25;;;;;;;2.20;1.83;;;16.30;99.90;;;;;;6216774;23;20165;-93
2021/10/02 17:58:51;;;;;;;7.57;1.80;;;16.20;99.90;;;;;;6216223;23;20206;-91
2021/10/02 18:01:18;;;;;;;4.17;1.83;;;16.20;99.90;;;;;;6216393;23;20683;-92
2021/10/02 18:03:47;;;;;;;3.37;2.23;;;16.20;99.90;;;;;;6216001;23;20150;-92
2021/10/02 18:06:13;;;;;;;3.17;1.67;;;16.10;99.90;;;;;;6215663;23;20587;-91
2021/10/02 18:08:39;;;;;;;2.23;1.70;;;16.10;99.90;;;;;;6216112;23;20149;-91
2021/10/02 18:11:06;;;;;;;5.77;2.20;;;16.10;99.90;;;;;;6216203;23;20528;-91
2021/10/02 18:13:31;;;;;;;3.63;1.90;;;16.10;99.90;;;;;;6216606;23;20199;-91
2021/10/02 18:15:58;;;;;;;3.27;1.90;;;16.10;99.90;;;;;;6216047;23;20156;-91
2021/10/02 18:18:24;;;;;;;3.50;1.87;;;16.00;99.90;;;;;;6216110;23;20153;-90
2021/10/02 18:20:50;;;;;;;3.70;2.20;;;15.90;99.90;;;;;;6215917;23;20155;-91
2021/10/02 18:23:17;;;;;;;3.87;2.10;;;16.00;99.90;;;;;;6216047;23;20181;-91
2021/10/02 18:28:16;;;;;;;3.73;1.90;;;16.10;99.90;;;;;;6224853;23;20204;-91
2021/10/02 18:30:42;;;;;;;2.67;1.77;;;16.10;99.90;;;;;;6215686;23;20149;-92
2021/10/02 18:33:09;;;;;;;2.73;1.80;;;16.00;99.90;;;;;;6215634;23;20619;-92
2021/10/02 18:35:37;;;;;;;3.20;1.80;;;16.10;99.90;;;;;;6215606;23;20167;-93
2021/10/02 18:38:03;;;;;;;4.67;2.17;;;16.10;99.90;;;;;;6215912;23;20580;-91
2021/10/02 18:40:34;;;;;;;3.23;1.97;;;16.10;99.90;;;;;;6215241;23;20176;-91
2021/10/02 18:43:01;;;;;;;7.10;1.93;;;16.10;99.90;;;;;;6216368;23;20158;-92
2021/10/02 18:45:27;;;;;;;2.20;2.00;;;16.10;99.90;;;;;;6221601;23;20152;-92
2021/10/02 18:47:53;;;;;;;6.23;2.13;;;16.10;99.90;;;;;;6234535;23;20153;-92
2021/10/02 18:50:19;;;;;;;4.03;1.93;;;16.10;99.90;;;;;;6237481;23;20166;-91
2021/10/02 18:52:45;;;;;;;2.30;1.70;;;16.10;99.90;;;;;;6238398;23;20208;-92
2021/10/02 18:55:13;;;;;;;4.17;2.13;;;16.10;99.90;;;;;;6237467;23;20141;-89
2021/10/02 18:57:39;;;;;;;2.43;1.87;;;16.10;99.90;;;;;;6241194;23;20133;-90
2021/10/02 19:00:08;;;;;;;4.07;2.10;;;16.20;99.90;;;;;;6239673;23;20660;-90
2021/10/02 19:02:34;;;;;;;3.33;2.20;;;16.20;99.90;;;;;;6235873;23;20180;-92
2021/10/02 19:05:00;;;;;;;2.97;1.80;;;16.20;99.90;;;;;;6232214;23;20188;-92
2021/10/02 19:07:26;;;;;;;4.73;2.23;;;16.30;99.90;;;;;;6227121;23;20152;-90
2021/10/02 19:09:52;;;;;;;4.47;2.17;;;16.30;99.90;;;;;;6219241;23;20589;-90
2021/10/02 19:12:18;;;;;;;2.97;2.23;;;16.20;99.90;;;;;;6218859;23;20151;-89
2021/10/02 19:14:44;;;;;;;4.27;1.93;;;16.30;99.90;;;;;;6216595;23;20219;-90
2021/10/02 19:17:13;;;;;;;5.67;1.80;;;16.30;99.90;;;;;;6216002;23;20517;-91
2021/10/02 19:19:38;;;;;;;3.37;1.90;;;16.30;99.90;;;;;;6218914;23;20183;-92
2021/10/02 19:22:04;;;;;;;2.60;1.83;;;16.40;99.90;;;;;;6218749;23;20154;-91
2021/10/02 19:24:31;;;;;;;3.13;2.00;;;16.40;99.90;;;;;;6220552;23;20146;-91
2021/10/02 19:26:58;;;;;;;2.13;1.77;;;16.40;99.90;;;;;;6219796;23;20642;-92
2021/10/02 19:29:24;;;;;;;3.53;1.70;;;16.50;99.90;;;;;;6220387;23;20168;-92
2021/10/02 19:31:51;;;;;;;2.40;1.60;;;16.50;99.90;;;;;;6219273;23;20146;-91
2021/10/02 19:34:19;;;;;;;1.97;1.67;;;16.40;99.90;;;;;;6218446;23;20161;-90
2021/10/02 19:36:45;;;;;;;2.27;1.40;;;16.40;99.90;;;;;;6217507;23;20160;-90
2021/10/02 19:39:11;;;;;;;3.63;1.53;;;16.50;99.90;;;;;;6219183;23;20180;-90
2021/10/02 19:41:39;;;;;;;2.57;1.63;;;16.50;99.90;;;;;;6218258;23;20229;-89
2021/10/02 19:44:08;;;;;;;3.63;1.40;;;16.50;99.90;;;;;;6220290;23;20149;-91
2021/10/02 19:46:35;;;;;;;2.20;1.50;;;16.50;99.90;;;;;;6218766;23;20160;-90
2021/10/02 19:49:02;;;;;;;2.87;1.80;;;16.50;99.90;;;;;;6217001;23;20460;-90
2021/10/02 19:51:28;;;;;;;1.93;1.50;;;16.50;99.90;;;;;;6215391;23;20178;-90
2021/10/02 19:53:55;;;;;;;2.10;1.50;;;16.50;99.90;;;;;;6215748;23;20161;-90
2021/10/02 19:56:21;;;;;;;3.57;1.43;;;16.60;99.90;;;;;;6215840;23;20145;-90
2021/10/02 19:58:48;;;;;;;2.27;1.30;;;16.70;99.90;;;;;;6215850;23;20181;-89
2021/10/02 20:01:15;;;;;;;2.07;1.20;;;16.60;99.90;;;;;;6215110;23;20644;-89
2021/10/02 20:03:41;;;;;;;2.40;1.10;;;16.70;99.90;;;;;;6217138;23;20150;-90
2021/10/02 20:06:09;;;;;;;2.47;1.10;;;16.70;99.90;;;;;;6216711;23;20236;-89
2021/10/02 20:08:35;;;;;;;4.33;1.30;;;16.80;99.90;;;;;;6220726;23;20208;-90
2021/10/02 20:11:04;;;;;;;1.57;1.00;;;16.80;99.90;;;;;;6220027;23;20155;-89
2021/10/02 20:13:30;;;;;;;3.57;1.30;;;16.80;99.90;;;;;;6220843;23;20581;-91
2021/10/02 20:15:56;;;;;;;1.93;0.97;;;16.80;99.90;;;;;;6220151;23;20159;-89
2021/10/02 20:18:22;;;;;;;5.77;1.17;;;16.90;99.90;;;;;;6215923;23;20150;-89
2021/10/02 20:20:48;;;;;;;2.63;1.00;;;16.80;99.90;;;;;;6217160;23;20590;-90
2021/10/02 20:23:13;;;;;;;3.83;1.23;;;16.60;99.90;;;;;;6215925;23;20231;-90
2021/10/02 20:25:40;;;;;;;2.10;1.30;;;16.50;99.90;;;;;;6215623;23;20153;-89
2021/10/02 20:28:08;;;;;;;2.73;1.30;;;16.40;99.90;;;;;;6215445;23;20817;-89
2021/10/02 20:30:36;;;;;;;4.23;1.30;;;16.30;99.90;;;;;;6214972;23;20584;-89
2021/10/02 20:33:02;;;;;;;1.13;0.93;;;16.40;99.90;;;;;;6215086;23;20145;-90
2021/10/02 20:35:27;;;;;;;2.03;1.30;;;16.40;99.90;;;;;;6214820;23;20171;-90
2021/10/02 20:37:53;;;;;;;2.13;1.40;;;16.30;99.90;;;;;;6216772;23;20190;-89
2021/10/02 20:40:21;;;;;;;1.43;0.93;;;16.40;99.90;;;;;;6216068;23;20212;-89
2021/10/02 20:42:47;;;;;;;1.30;1.13;;;16.40;99.90;;;;;;6215830;23;20478;-89
2021/10/02 20:45:14;;;;;;;2.07;1.30;;;16.40;99.90;;;;;;6214800;23;20565;-88
2021/10/02 20:47:43;;;;;;;2.33;1.27;;;16.30;99.90;;;;;;6216086;23;20151;-89
2021/10/02 20:50:11;;;;;;;3.00;1.60;;;16.30;99.90;;;;;;6216009;23;20159;-89
2021/10/02 20:52:37;;;;;;;2.77;1.67;;;16.20;99.90;;;;;;6216567;23;20582;-90
2021/10/02 20:55:05;;;;;;;15.17;1.80;;;16.00;99.90;;;;;;6218052;23;20285;-90
2021/10/02 20:57:31;;;;;;;5.37;1.37;;;16.00;99.90;;;;;;6217597;23;20144;-88
2021/10/02 20:59:57;;;;;;;3.03;1.40;;;16.00;99.90;;;;;;6216951;23;20200;-89
2021/10/02 21:02:25;;;;;;;1.93;1.23;;;16.00;99.90;;;;;;6216331;23;20148;-89
2021/10/02 21:04:56;;;;;;;1.73;1.20;;;16.00;99.90;;;;;;6215973;23;20181;-89
2021/10/02 21:07:22;;;;;;;2.30;1.40;;;16.00;99.90;;;;;;6217484;23;20143;-89
2021/10/02 21:09:50;;;;;;;3.37;1.40;;;16.10;99.90;;;;;;6216431;23;20528;-89
2021/10/02 21:12:16;;;;;;;2.13;1.03;;;16.10;99.90;;;;;;6218336;23;20150;-89
2021/10/02 21:14:42;;;;;;;13.17;1.57;;;16.20;99.90;;;;;;6219071;23;20479;-90
2021/10/02 21:17:09;;;;;;;3.80;1.67;;;16.20;99.90;;;;;;6217432;23;20176;-88
2021/10/02 21:19:38;;;;;;;2.13;1.40;;;16.30;99.90;;;;;;6217545;23;20187;-89
2021/10/02 21:22:04;;;;;;;3.17;1.37;;;16.30;99.90;;;;;;6217524;23;20157;-91
2021/10/02 21:24:31;;;;;;;4.30;1.47;;;16.30;99.90;;;;;;6217237;23;20177;-91
2021/10/02 21:26:57;;;;;;;7.43;1.30;;;16.30;99.90;;;;;;6215984;23;20160;-88
2021/10/02 21:29:27;;;;;;;3.07;1.30;;;16.20;99.90;;;;;;6215646;23;20153;-90
2021/10/02 21:31:55;;;;;;;2.83;1.30;;;16.20;99.90;;;;;;6215898;23;20227;-89
2021/10/02 21:34:21;;;;;;;3.40;1.03;;;16.20;99.90;;;;;;6215167;23;20170;-90
2021/10/02 21:36:47;;;;;;;1.87;1.20;;;16.20;99.90;;;;;;6215628;23;20226;-89
2021/10/02 21:39:14;;;;;;;2.53;1.10;;;16.20;99.90;;;;;;6215526;23;20264;-90
2021/10/02 21:41:41;;;;;;;1.87;1.20;;;16.30;99.90;;;;;;6216106;23;20152;-89
2021/10/02 21:44:07;;;;;;;3.33;1.27;;;16.30;99.90;;;;;;6215569;23;20177;-90
2021/10/02 21:46:33;;;;;;;3.10;1.33;;;16.40;99.90;;;;;;6217128;23;20568;-90
2021/10/02 21:48:59;;;;;;;1.53;1.00;;;16.40;99.90;;;;;;6218381;23;20161;-91
2021/10/02 21:51:29;;;;;;;1.90;1.10;;;16.40;99.90;;;;;;6216286;23;20625;-90
2021/10/02 21:54:03;;;;;;;2.00;1.60;;;16.40;99.90;;;;;;6217073;23;20157;-90
2021/10/02 21:56:31;;;;;;;3.13;1.20;;;16.40;99.90;;;;;;6216173;23;20288;-91
2021/10/02 21:59:00;;;;;;;1.87;1.10;;;16.50;99.90;;;;;;6216862;23;20181;-91
2021/10/02 22:01:30;;;;;;;2.07;1.30;;;16.50;99.90;;;;;;6217142;23;20176;-91
2021/10/02 22:03:56;;;;;;;2.17;1.57;;;16.60;99.90;;;;;;6216555;23;20190;-89